Time;durP1;ratioP1;P1;durP2;ratioP2;P2;SDS_P1;SDS_P2;PMS_P1;PMS_P2;Temp;Humidity;BMP_temperature;BMP_pressure;BME280_temperature;BME280_humidity;BME280_pressure;Samples;Min_cycle;Max_cycle;Signal;HPM_P1;HPM_P2
2023/01/22 00:01:15;;;;;;;1.88;1.65;;;0.60;99.90;;;;;;7385241;19;20872;-79
2023/01/22 00:03:42;;;;;;;1.53;1.43;;;0.60;99.90;;;;;;7385174;19;20335;-80
2023/01/22 00:06:08;;;;;;;2.27;1.23;;;0.70;99.90;;;;;;7358125;19;20313;-82
2023/01/22 00:08:34;;;;;;;1.67;1.57;;;0.60;99.90;;;;;;7380796;19;20890;-92
2023/01/22 00:11:01;;;;;;;1.80;1.70;;;0.50;99.90;;;;;;7344530;19;20329;-95
2023/01/22 00:13:27;;;;;;;1.88;1.50;;;0.60;99.90;;;;;;7387328;19;20312;-80
2023/01/22 00:15:53;;;;;;;1.70;1.60;;;0.60;99.90;;;;;;7385349;19;20323;-92
2023/01/22 00:18:19;;;;;;;1.80;1.53;;;0.60;99.90;;;;;;7385611;19;20415;-90
2023/01/22 00:20:53;;;;;;;1.65;1.55;;;0.60;99.90;;;;;;7386397;19;20388;-90
2023/01/22 00:23:21;;;;;;;2.90;1.90;;;0.60;99.90;;;;;;7261066;19;2004368;-90
2023/01/22 00:25:46;;;;;;;1.85;1.75;;;0.60;99.90;;;;;;7386571;19;20929;-84
2023/01/22 00:28:13;;;;;;;1.60;1.30;;;0.60;99.90;;;;;;7388073;19;20368;-92
2023/01/22 00:30:40;;;;;;;1.70;1.60;;;0.60;99.90;;;;;;7392189;19;20316;-80
2023/01/22 00:33:07;;;;;;;1.70;1.60;;;0.60;99.90;;;;;;7392101;19;20826;-83
2023/01/22 00:35:36;;;;;;;2.72;1.70;;;0.60;99.90;;;;;;7388650;19;20364;-84
2023/01/22 00:38:02;;;;;;;1.80;1.70;;;0.60;99.90;;;;;;7392205;19;20324;-87
2023/01/22 00:40:28;;;;;;;2.90;1.70;;;0.60;99.90;;;;;;7387535;19;20309;-85
2023/01/22 00:42:54;;;;;;;1.67;1.58;;;0.70;99.90;;;;;;7392662;19;20659;-83
2023/01/22 00:45:20;;;;;;;1.70;1.60;;;0.60;99.90;;;;;;7375557;19;20321;-88
2023/01/22 00:47:46;;;;;;;1.75;1.60;;;0.60;99.90;;;;;;7393491;19;20316;-81
2023/01/22 00:50:17;;;;;;;2.60;1.70;;;0.60;99.90;;;;;;7393804;19;20324;-88
2023/01/22 00:52:44;;;;;;;1.75;1.48;;;0.60;99.90;;;;;;7392350;19;20316;-87
2023/01/22 00:55:10;;;;;;;1.80;1.70;;;0.60;99.90;;;;;;7393127;19;20303;-89
2023/01/22 00:57:35;;;;;;;3.00;1.73;;;0.60;99.90;;;;;;7372513;19;20335;-87
2023/01/22 01:00:01;;;;;;;2.28;1.90;;;0.60;99.90;;;;;;7391153;19;20333;-89
2023/01/22 01:02:29;;;;;;;1.83;1.70;;;0.60;99.90;;;;;;7391383;19;20328;-91
2023/01/22 01:05:06;;;;;;;2.10;1.80;;;0.60;99.90;;;;;;7394167;19;20330;-90
2023/01/22 01:07:32;;;;;;;2.10;1.90;;;0.60;99.90;;;;;;7391131;19;20329;-87
2023/01/22 01:10:00;;;;;;;1.70;1.60;;;0.60;99.90;;;;;;7390248;19;20649;-89
2023/01/22 01:12:26;;;;;;;1.70;1.60;;;0.60;99.90;;;;;;7386945;19;20308;-90
2023/01/22 01:14:55;;;;;;;2.00;1.90;;;0.60;99.90;;;;;;7392070;19;20737;-86
2023/01/22 01:17:22;;;;;;;2.05;1.85;;;0.60;99.90;;;;;;7390311;19;20305;-93
2023/01/22 01:19:48;;;;;;;1.80;1.70;;;0.60;99.90;;;;;;7394724;19;20410;-87
2023/01/22 01:22:15;;;;;;;1.88;1.70;;;0.60;99.90;;;;;;7393844;19;20308;-85
2023/01/22 01:24:48;;;;;;;2.10;1.75;;;0.50;99.90;;;;;;7390449;19;20912;-85
2023/01/22 01:27:14;;;;;;;1.98;1.77;;;0.60;99.90;;;;;;7391943;19;20304;-86
2023/01/22 01:29:40;;;;;;;2.10;1.90;;;0.60;99.90;;;;;;7391904;19;20675;-88
2023/01/22 01:32:06;;;;;;;1.80;1.70;;;0.60;99.90;;;;;;7391513;19;20301;-88
2023/01/22 01:34:31;;;;;;;1.67;1.57;;;0.60;99.90;;;;;;7390787;19;20333;-87
2023/01/22 01:36:57;;;;;;;4.20;2.10;;;0.60;99.90;;;;;;7389406;19;20866;-90
2023/01/22 01:39:23;;;;;;;1.83;1.73;;;0.60;99.90;;;;;;7388815;19;20723;-84
2023/01/22 01:41:49;;;;;;;1.80;1.70;;;0.60;99.90;;;;;;7392598;19;20392;-91
2023/01/22 01:44:19;;;;;;;1.60;1.50;;;0.60;99.90;;;;;;7388154;19;20677;-83
2023/01/22 01:46:49;;;;;;;1.90;1.80;;;0.60;99.90;;;;;;7391506;19;20838;-85
2023/01/22 01:49:20;;;;;;;2.00;1.90;;;0.60;99.90;;;;;;7391985;19;20333;-83
2023/01/22 01:51:46;;;;;;;1.90;1.80;;;0.60;99.90;;;;;;7389266;19;20319;-86
2023/01/22 01:54:11;;;;;;;1.80;1.70;;;0.60;99.90;;;;;;7392078;19;20308;-85
2023/01/22 01:56:43;;;;;;;1.80;1.70;;;0.60;99.90;;;;;;7388463;19;20327;-88
2023/01/22 01:59:11;;;;;;;1.90;1.80;;;0.60;99.90;;;;;;7392685;19;20317;-85
2023/01/22 02:01:42;;;;;;;1.83;1.73;;;0.70;99.90;;;;;;7343118;19;20356;-90
2023/01/22 02:04:08;;;;;;;1.98;1.88;;;0.60;99.90;;;;;;7389417;19;20337;-80
2023/01/22 02:06:35;;;;;;;2.22;2.03;;;0.60;99.90;;;;;;7392028;19;20313;-91
2023/01/22 02:09:01;;;;;;;2.10;2.00;;;0.60;99.90;;;;;;7391731;19;20340;-88
2023/01/22 02:11:27;;;;;;;1.80;1.70;;;0.70;99.90;;;;;;7370180;19;20605;-92
2023/01/22 02:14:04;;;;;;;1.73;1.63;;;0.60;99.90;;;;;;7393081;19;20736;-91
2023/01/22 02:16:30;;;;;;;2.58;1.92;;;0.60;99.90;;;;;;7391902;19;20304;-88
2023/01/22 02:18:56;;;;;;;2.05;1.90;;;0.60;99.90;;;;;;7388955;19;20321;-83
2023/01/22 02:21:32;;;;;;;2.37;1.80;;;0.60;99.90;;;;;;7390206;19;20864;-84
2023/01/22 02:23:58;;;;;;;1.63;1.53;;;0.60;99.90;;;;;;7388576;19;20309;-83
2023/01/22 02:26:27;;;;;;;2.00;1.90;;;0.60;99.90;;;;;;7391800;19;20889;-82
2023/01/22 02:28:52;;;;;;;2.42;1.67;;;0.60;99.90;;;;;;7390656;19;20315;-86
2023/01/22 02:31:18;;;;;;;2.43;1.90;;;0.60;99.90;;;;;;7388932;19;20892;-90
2023/01/22 02:33:45;;;;;;;1.98;1.77;;;0.80;99.90;;;;;;7390499;19;20308;-86
2023/01/22 02:36:11;;;;;;;2.20;2.00;;;0.60;99.90;;;;;;7388617;19;20319;-82
2023/01/22 02:38:36;;;;;;;2.20;2.00;;;0.60;99.90;;;;;;7390960;19;20916;-83
2023/01/22 02:41:22;;;;;;;2.08;1.98;;;0.60;99.90;;;;;;7388121;19;20331;-87
2023/01/22 02:43:48;;;;;;;2.30;2.10;;;0.70;99.90;;;;;;7392823;19;20673;-81
2023/01/22 02:46:16;;;;;;;2.20;2.00;;;0.80;99.90;;;;;;7391993;19;20404;-87
2023/01/22 02:49:03;;;;;;;2.92;2.20;;;0.60;99.90;;;;;;7390277;19;20325;-81
2023/01/22 02:51:31;;;;;;;2.00;1.90;;;0.60;99.90;;;;;;7286531;19;2004324;-89
2023/01/22 02:54:00;;;;;;;2.05;1.85;;;0.60;99.90;;;;;;7389294;19;20395;-85
2023/01/22 02:56:27;;;;;;;2.10;2.00;;;0.60;99.90;;;;;;7368131;19;20320;-80
2023/01/22 02:58:53;;;;;;;2.38;2.17;;;0.70;99.90;;;;;;7386533;19;20312;-85
2023/01/22 03:01:23;;;;;;;3.97;2.55;;;0.60;99.90;;;;;;7388163;19;20345;-91
2023/01/22 03:03:53;;;;;;;2.78;1.90;;;0.60;99.90;;;;;;7287383;19;2004387;-90
2023/01/22 03:06:27;;;;;;;2.47;2.28;;;0.60;99.90;;;;;;7392616;19;21006;-87
2023/01/22 03:08:55;;;;;;;2.75;2.10;;;0.60;99.90;;;;;;7287398;19;2004223;-83
2023/01/22 03:11:21;;;;;;;2.40;2.20;;;0.60;99.90;;;;;;7387794;19;20309;-83
2023/01/22 03:22:07;;;;;;;3.88;2.40;;;0.60;99.90;;;;;;7290645;19;2004464;-85
2023/01/22 03:24:32;;;;;;;2.50;2.15;;;0.60;99.90;;;;;;7345776;19;20324;-81
2023/01/22 03:26:59;;;;;;;3.03;2.50;;;0.60;99.90;;;;;;7387028;19;20309;-80
2023/01/22 03:29:28;;;;;;;4.68;3.10;;;0.50;99.90;;;;;;7386244;19;20332;-84
2023/01/22 03:31:53;;;;;;;3.78;2.60;;;0.50;99.90;;;;;;7386168;19;20347;-77
2023/01/22 03:34:20;;;;;;;2.90;2.60;;;0.60;99.90;;;;;;7387017;19;20316;-80
2023/01/22 03:36:46;;;;;;;4.13;2.97;;;0.60;99.90;;;;;;7386215;19;20392;-81
2023/01/22 03:39:18;;;;;;;3.63;3.10;;;0.50;99.90;;;;;;7386168;19;20312;-83
2023/01/22 03:41:44;;;;;;;3.22;2.72;;;0.60;99.90;;;;;;7385660;19;20332;-78
2023/01/22 03:44:10;;;;;;;3.23;2.60;;;0.60;99.90;;;;;;7387559;19;20313;-79
2023/01/22 03:46:39;;;;;;;3.17;2.87;;;0.60;99.90;;;;;;7388005;19;20308;-84
2023/01/22 03:49:06;;;;;;;3.90;3.30;;;0.70;99.90;;;;;;7387460;19;20308;-81
2023/01/22 03:51:31;;;;;;;3.70;2.92;;;0.60;99.90;;;;;;7387935;19;20909;-80
2023/01/22 03:53:58;;;;;;;2.93;2.60;;;0.60;99.90;;;;;;7387226;19;20310;-82
2023/01/22 03:56:24;;;;;;;4.10;3.20;;;0.60;99.90;;;;;;7386130;19;20675;-78
2023/01/22 03:58:53;;;;;;;4.32;3.20;;;0.60;99.90;;;;;;7384621;19;20301;-78
2023/01/22 04:01:20;;;;;;;3.50;3.20;;;0.60;99.90;;;;;;7386874;19;20421;-84
2023/01/22 04:03:46;;;;;;;3.10;2.80;;;0.60;99.90;;;;;;7386530;19;20387;-80
2023/01/22 04:06:13;;;;;;;4.95;2.80;;;0.50;99.90;;;;;;7387699;19;20849;-83
2023/01/22 04:08:40;;;;;;;4.65;3.55;;;0.50;99.90;;;;;;7387664;19;20329;-81
2023/01/22 04:11:06;;;;;;;4.78;3.38;;;0.60;99.90;;;;;;7386508;19;20372;-79
2023/01/22 04:13:32;;;;;;;4.30;3.13;;;0.60;99.90;;;;;;7387319;19;20320;-87
2023/01/22 04:15:58;;;;;;;4.03;3.40;;;0.50;99.90;;;;;;7387490;19;20296;-84
2023/01/22 04:18:56;;;;;;;4.18;3.47;;;0.60;99.90;;;;;;7284715;19;2004632;-84
2023/01/22 04:21:41;;;;;;;5.27;3.33;;;0.70;99.90;;;;;;7387815;19;20391;-81
2023/01/22 04:24:09;;;;;;;4.47;3.80;;;0.60;99.90;;;;;;7385944;19;20392;-81
2023/01/22 04:26:34;;;;;;;3.90;3.10;;;0.60;99.90;;;;;;7384929;19;20324;-80
2023/01/22 04:29:04;;;;;;;3.72;3.25;;;0.60;99.90;;;;;;7383602;19;20316;-86
2023/01/22 04:31:29;;;;;;;6.20;3.80;;;0.70;99.90;;;;;;7384552;19;20312;-82
2023/01/22 04:34:16;;;;;;;5.28;4.10;;;0.60;99.90;;;;;;7385841;19;20304;-81
2023/01/22 04:37:02;;;;;;;7.60;3.80;;;0.70;99.90;;;;;;7281639;19;2004341;-80
2023/01/22 04:39:30;;;;;;;4.50;3.35;;;0.60;99.90;;;;;;7385569;19;20861;-82
2023/01/22 04:41:58;;;;;;;5.50;4.00;;;0.60;99.90;;;;;;7385067;19;20423;-88
2023/01/22 04:44:24;;;;;;;4.88;4.28;;;0.60;99.90;;;;;;7385734;19;20361;-82
2023/01/22 04:46:50;;;;;;;5.38;3.92;;;0.60;99.90;;;;;;7386900;19;20319;-81
2023/01/22 04:49:16;;;;;;;4.80;3.55;;;0.60;99.90;;;;;;7385918;19;20647;-81
2023/01/22 04:51:42;;;;;;;5.50;3.70;;;0.70;99.90;;;;;;7385354;19;20308;-83
2023/01/22 04:54:23;;;;;;;5.20;4.20;;;0.70;99.90;;;;;;7387346;19;20312;-83
2023/01/22 04:56:51;;;;;;;5.97;4.57;;;0.70;99.90;;;;;;7394162;19;20312;-84
2023/01/22 04:59:23;;;;;;;5.83;4.23;;;0.70;99.90;;;;;;7389130;19;20309;-84
2023/01/22 05:01:49;;;;;;;6.03;4.70;;;0.60;99.90;;;;;;7388855;19;20841;-83
2023/01/22 05:04:20;;;;;;;6.70;4.70;;;0.60;99.90;;;;;;7387361;19;20304;-83
2023/01/22 05:06:47;;;;;;;5.82;4.80;;;0.60;99.90;;;;;;7389633;19;20311;-86
2023/01/22 05:09:13;;;;;;;5.70;4.13;;;0.60;99.90;;;;;;7390396;19;20301;-84
2023/01/22 05:11:52;;;;;;;7.60;5.30;;;0.60;99.90;;;;;;7390993;19;20858;-92
2023/01/22 05:14:18;;;;;;;6.57;5.05;;;0.60;99.90;;;;;;7388571;19;20346;-85
2023/01/22 05:16:45;;;;;;;7.25;5.22;;;0.60;99.90;;;;;;7393800;19;20320;-88
2023/01/22 05:19:11;;;;;;;6.47;5.20;;;0.60;99.90;;;;;;7397538;19;20341;-91
2023/01/22 05:21:38;;;;;;;5.95;4.70;;;0.60;99.90;;;;;;7398147;19;20335;-91
2023/01/22 05:24:08;;;;;;;5.45;4.80;;;0.60;99.90;;;;;;7392210;19;20312;-87
2023/01/22 05:26:34;;;;;;;4.70;4.07;;;0.70;99.90;;;;;;7393757;19;20655;-86
2023/01/22 05:29:11;;;;;;;4.45;3.97;;;0.60;99.90;;;;;;7395015;19;20671;-83
2023/01/22 05:31:56;;;;;;;3.95;3.55;;;0.70;99.90;;;;;;7290829;19;2004404;-82
2023/01/22 05:34:30;;;;;;;6.15;4.75;;;0.60;99.90;;;;;;7393698;19;20396;-87
2023/01/22 05:36:57;;;;;;;6.73;4.60;;;0.70;99.90;;;;;;7398183;19;20666;-81
2023/01/22 05:39:25;;;;;;;4.10;3.70;;;0.60;99.90;;;;;;7393552;19;20342;-90
2023/01/22 05:41:52;;;;;;;5.07;4.10;;;0.60;99.90;;;;;;7371535;19;20304;-89
2023/01/22 05:44:19;;;;;;;7.05;4.38;;;0.70;99.90;;;;;;7396204;19;20317;-86
2023/01/22 05:46:49;;;;;;;6.03;4.47;;;0.70;99.90;;;;;;7397290;19;20325;-90
2023/01/22 05:49:34;;;;;;;6.07;4.83;;;0.60;99.90;;;;;;7297763;19;2004219;-82
2023/01/22 05:52:00;;;;;;;4.70;4.18;;;0.60;99.90;;;;;;7400161;19;20676;-87
2023/01/22 05:54:27;;;;;;;3.65;3.35;;;0.60;99.90;;;;;;7392775;19;20297;-85
2023/01/22 05:56:56;;;;;;;4.38;3.65;;;0.60;99.90;;;;;;7395198;19;20320;-82
2023/01/22 05:59:23;;;;;;;6.03;3.90;;;0.60;99.90;;;;;;7399477;19;20336;-88
2023/01/22 06:01:55;;;;;;;5.10;3.95;;;0.60;99.90;;;;;;7394546;19;20325;-85
2023/01/22 06:04:21;;;;;;;6.03;4.07;;;0.70;99.90;;;;;;7396534;19;20301;-83
2023/01/22 06:06:48;;;;;;;5.72;3.92;;;0.60;99.90;;;;;;7394606;19;20384;-89
2023/01/22 06:09:15;;;;;;;6.25;4.30;;;0.80;99.90;;;;;;7394481;19;20329;-80
2023/01/22 06:11:47;;;;;;;4.68;4.05;;;0.60;99.90;;;;;;7392297;19;20329;-88
2023/01/22 06:14:14;;;;;;;4.93;4.03;;;0.60;99.90;;;;;;7393388;19;20343;-80
2023/01/22 06:16:41;;;;;;;4.43;4.00;;;0.60;99.90;;;;;;7390574;19;20329;-79
2023/01/22 06:19:21;;;;;;;4.45;3.97;;;0.60;99.90;;;;;;7371989;19;20337;-89
2023/01/22 06:21:52;;;;;;;5.47;3.73;;;0.70;99.90;;;;;;7290260;19;2004140;-86
2023/01/22 06:24:31;;;;;;;3.83;3.40;;;0.60;99.90;;;;;;7388935;19;20313;-83
2023/01/22 06:27:05;;;;;;;4.72;3.85;;;0.60;99.90;;;;;;7389804;19;20324;-87
2023/01/22 06:29:39;;;;;;;4.00;3.50;;;0.60;99.90;;;;;;7394942;19;20323;-87
2023/01/22 06:32:05;;;;;;;4.15;3.75;;;0.70;99.90;;;;;;7395961;19;20342;-84
2023/01/22 06:34:30;;;;;;;4.72;4.00;;;0.60;99.90;;;;;;7387699;19;20308;-86
2023/01/22 06:37:00;;;;;;;3.80;3.40;;;0.60;99.90;;;;;;7394803;19;21161;-88
2023/01/22 06:39:32;;;;;;;4.43;3.47;;;0.60;99.90;;;;;;7386685;19;20426;-88
2023/01/22 06:42:10;;;;;;;3.95;3.30;;;0.60;99.90;;;;;;7392807;19;20326;-90
2023/01/22 06:44:39;;;;;;;4.28;3.78;;;0.70;99.90;;;;;;7366572;19;20327;-86
2023/01/22 06:47:06;;;;;;;4.97;3.80;;;0.70;99.90;;;;;;7393578;19;20327;-87
2023/01/22 06:49:32;;;;;;;4.00;3.60;;;0.70;99.90;;;;;;7395216;19;20826;-91
2023/01/22 06:52:05;;;;;;;3.75;3.08;;;0.70;99.90;;;;;;7370891;19;20297;-81
2023/01/22 06:54:55;;;;;;;3.50;3.20;;;0.70;99.90;;;;;;7394345;19;20316;-82
2023/01/22 06:57:23;;;;;;;3.20;2.90;;;0.70;99.90;;;;;;7289597;19;2004254;-89
2023/01/22 06:59:51;;;;;;;3.70;3.25;;;0.80;99.90;;;;;;7392481;19;20681;-87
2023/01/22 07:02:17;;;;;;;4.83;3.50;;;0.90;99.90;;;;;;7385314;19;20305;-83
2023/01/22 07:04:43;;;;;;;5.18;3.58;;;0.70;99.90;;;;;;7388777;19;20316;-91
2023/01/22 07:07:16;;;;;;;3.83;3.42;;;0.80;99.90;;;;;;7384273;19;20333;-83
2023/01/22 07:09:42;;;;;;;3.90;3.58;;;0.90;99.90;;;;;;7398243;19;20384;-83
2023/01/22 07:12:08;;;;;;;5.47;3.60;;;0.70;99.90;;;;;;7387935;19;20346;-87
2023/01/22 07:14:34;;;;;;;3.88;3.45;;;0.70;99.90;;;;;;7371762;19;20324;-87
2023/01/22 07:17:00;;;;;;;4.85;3.85;;;0.70;99.90;;;;;;7393153;19;20317;-85
2023/01/22 07:19:26;;;;;;;4.32;3.92;;;0.70;99.90;;;;;;7374479;19;20334;-86
2023/01/22 07:21:57;;;;;;;4.65;3.90;;;0.70;99.90;;;;;;7391652;19;20308;-88
2023/01/22 07:24:36;;;;;;;4.50;4.00;;;0.70;99.90;;;;;;7389881;19;20308;-81
2023/01/22 07:27:01;;;;;;;5.07;4.40;;;0.70;99.90;;;;;;7394581;19;20297;-80
2023/01/22 07:29:27;;;;;;;4.95;3.95;;;0.80;99.90;;;;;;7391235;19;20308;-85
2023/01/22 07:31:53;;;;;;;5.22;4.10;;;0.80;99.90;;;;;;7388519;19;20297;-83
2023/01/22 07:34:19;;;;;;;6.97;4.60;;;0.80;99.90;;;;;;7397137;19;20320;-84
2023/01/22 07:37:09;;;;;;;4.50;3.92;;;0.70;99.90;;;;;;7386327;19;20323;-81
2023/01/22 07:39:45;;;;;;;5.18;4.10;;;0.80;99.90;;;;;;7390547;19;20333;-85
2023/01/22 07:42:13;;;;;;;5.05;3.92;;;0.80;99.90;;;;;;7391595;19;20301;-91
2023/01/22 07:44:41;;;;;;;5.35;4.00;;;0.80;99.90;;;;;;7392373;19;20308;-88
2023/01/22 07:47:07;;;;;;;4.15;3.50;;;0.80;99.90;;;;;;7375034;19;20319;-84
2023/01/22 07:49:33;;;;;;;4.90;3.90;;;0.80;99.90;;;;;;7391433;19;20312;-87
2023/01/22 07:51:58;;;;;;;4.10;3.20;;;0.80;99.90;;;;;;7388585;19;20320;-86
2023/01/22 07:54:34;;;;;;;4.72;3.88;;;0.80;99.90;;;;;;7385191;19;20333;-79
2023/01/22 07:57:01;;;;;;;5.00;3.88;;;0.90;99.90;;;;;;7392820;19;20384;-84
2023/01/22 07:59:27;;;;;;;3.80;3.20;;;0.80;99.90;;;;;;7389212;19;20316;-89
2023/01/22 08:02:05;;;;;;;4.15;3.55;;;0.90;99.90;;;;;;7390570;19;20300;-88
2023/01/22 08:04:31;;;;;;;4.72;3.72;;;0.90;99.90;;;;;;7389162;19;20405;-86
2023/01/22 08:06:57;;;;;;;5.28;3.65;;;1.00;99.90;;;;;;7392516;19;20830;-90
2023/01/22 08:09:24;;;;;;;4.43;3.05;;;0.80;99.90;;;;;;7392854;19;20307;-88
2023/01/22 08:11:51;;;;;;;3.63;3.22;;;0.90;99.90;;;;;;7393440;19;20368;-87
2023/01/22 08:14:17;;;;;;;4.13;3.38;;;0.90;99.90;;;;;;7390021;19;20325;-80
2023/01/22 08:16:43;;;;;;;3.57;3.27;;;0.90;99.90;;;;;;7389066;19;20324;-88
2023/01/22 08:19:18;;;;;;;4.15;3.20;;;1.00;99.90;;;;;;7389448;19;20686;-87
2023/01/22 08:21:44;;;;;;;3.35;3.03;;;1.00;99.90;;;;;;7394351;19;20379;-87
2023/01/22 08:24:11;;;;;;;5.10;3.63;;;0.90;99.90;;;;;;7383907;19;20332;-90
2023/01/22 08:26:38;;;;;;;4.53;3.20;;;0.90;99.90;;;;;;7389156;19;20300;-87
2023/01/22 08:29:04;;;;;;;6.95;4.00;;;1.00;99.90;;;;;;7369847;19;20306;-84
2023/01/22 08:31:30;;;;;;;4.57;3.50;;;0.90;99.90;;;;;;7389148;19;20304;-86
2023/01/22 08:33:58;;;;;;;4.28;3.35;;;0.90;99.90;;;;;;7387208;19;20664;-83
2023/01/22 08:36:24;;;;;;;3.90;3.47;;;0.90;99.90;;;;;;7365494;19;20723;-86
2023/01/22 08:38:50;;;;;;;3.47;3.17;;;1.00;99.90;;;;;;7387478;19;20349;-84
2023/01/22 08:41:17;;;;;;;4.13;3.30;;;1.00;99.90;;;;;;7370200;19;20391;-88
2023/01/22 08:43:45;;;;;;;5.25;3.47;;;1.00;99.90;;;;;;7391903;19;20333;-80
2023/01/22 08:46:13;;;;;;;4.03;3.15;;;1.00;99.90;;;;;;7345059;19;20321;-84
2023/01/22 08:48:43;;;;;;;3.33;3.00;;;1.10;99.90;;;;;;7391039;19;21084;-83
2023/01/22 08:51:11;;;;;;;4.10;3.20;;;0.90;99.90;;;;;;7395739;19;20328;-81
2023/01/22 08:53:39;;;;;;;3.28;2.97;;;1.10;99.90;;;;;;7393851;19;20312;-82
2023/01/22 08:56:18;;;;;;;3.20;2.90;;;1.10;99.90;;;;;;7391083;19;20329;-81
2023/01/22 08:58:49;;;;;;;5.15;3.03;;;1.00;99.90;;;;;;7386808;19;20324;-87
2023/01/22 09:01:18;;;;;;;5.15;3.20;;;1.10;99.90;;;;;;7394741;19;20304;-84
2023/01/22 09:03:44;;;;;;;4.03;3.28;;;1.10;99.90;;;;;;7394212;19;20329;-79
2023/01/22 09:06:10;;;;;;;3.63;3.08;;;1.00;99.90;;;;;;7392592;19;20317;-87
2023/01/22 09:08:35;;;;;;;3.40;3.10;;;1.00;99.90;;;;;;7392056;19;20319;-83
2023/01/22 09:11:04;;;;;;;4.18;3.42;;;1.20;99.90;;;;;;7391131;19;20297;-78
2023/01/22 09:13:30;;;;;;;3.70;3.38;;;1.00;99.90;;;;;;7390709;19;20309;-78
2023/01/22 09:15:56;;;;;;;3.55;3.20;;;1.10;99.90;;;;;;7392037;19;20305;-78
2023/01/22 09:18:21;;;;;;;3.33;2.67;;;1.10;99.90;;;;;;7389968;19;20333;-78
2023/01/22 09:20:47;;;;;;;4.40;3.40;;;1.00;99.90;;;;;;7390517;19;20309;-79
2023/01/22 09:23:12;;;;;;;4.05;3.65;;;1.10;99.90;;;;;;7390699;19;20313;-84
2023/01/22 09:25:39;;;;;;;4.00;3.60;;;1.10;99.90;;;;;;7389917;19;20978;-77
2023/01/22 09:28:07;;;;;;;3.40;3.10;;;1.20;99.90;;;;;;7390570;19;20325;-83
2023/01/22 09:30:34;;;;;;;4.35;3.45;;;1.30;99.90;;;;;;7391780;19;20364;-82
2023/01/22 09:32:59;;;;;;;4.20;3.60;;;1.20;99.90;;;;;;7389740;19;20327;-79
2023/01/22 09:35:26;;;;;;;5.07;4.20;;;1.20;99.90;;;;;;7368297;19;20838;-78
2023/01/22 09:37:52;;;;;;;4.63;4.18;;;1.20;99.90;;;;;;7390862;19;20314;-80
2023/01/22 09:40:25;;;;;;;3.63;3.33;;;1.20;99.90;;;;;;7389080;19;20305;-79
2023/01/22 09:42:51;;;;;;;4.22;3.75;;;1.20;99.90;;;;;;7391140;19;20312;-77
2023/01/22 09:45:17;;;;;;;4.88;3.70;;;1.20;99.90;;;;;;7389275;19;20316;-79
2023/01/22 09:47:46;;;;;;;4.80;3.50;;;1.30;99.90;;;;;;7389908;19;20316;-84
2023/01/22 09:50:19;;;;;;;4.30;3.67;;;1.30;99.90;;;;;;7389794;19;20327;-79
2023/01/22 09:52:45;;;;;;;4.68;3.30;;;1.30;99.90;;;;;;7392759;19;20305;-79
2023/01/22 09:55:12;;;;;;;3.88;3.47;;;1.40;99.90;;;;;;7388675;19;20309;-78
2023/01/22 09:57:41;;;;;;;3.97;3.28;;;1.30;99.90;;;;;;7388660;19;20325;-82
2023/01/22 10:00:17;;;;;;;4.07;3.50;;;1.30;99.90;;;;;;7392269;19;20324;-86
2023/01/22 10:02:47;;;;;;;3.75;3.40;;;1.30;99.90;;;;;;7418185;19;20324;-86
2023/01/22 10:05:29;;;;;;;4.50;3.78;;;1.30;99.90;;;;;;7419146;19;20324;-86
2023/01/22 10:08:09;;;;;;;4.50;3.90;;;1.30;99.90;;;;;;7315162;19;2004148;-86
2023/01/22 10:10:35;;;;;;;4.00;3.60;;;1.30;99.90;;;;;;7417048;19;20308;-86
2023/01/22 10:13:10;;;;;;;4.40;3.80;;;1.30;99.90;;;;;;7418113;19;20349;-87
2023/01/22 10:15:35;;;;;;;3.65;3.35;;;1.40;99.90;;;;;;7419659;19;20333;-88
2023/01/22 10:18:01;;;;;;;4.07;3.67;;;1.40;99.90;;;;;;7417753;19;20313;-89
2023/01/22 10:20:27;;;;;;;4.77;3.97;;;1.40;99.90;;;;;;7417060;19;20320;-87
2023/01/22 10:22:58;;;;;;;6.03;4.07;;;1.50;99.90;;;;;;7419047;19;20324;-88
2023/01/22 10:25:23;;;;;;;4.78;3.97;;;1.50;99.90;;;;;;7315456;19;2006031;-88
2023/01/22 10:27:59;;;;;;;4.40;4.00;;;1.60;99.90;;;;;;7418794;19;20558;-88
2023/01/22 10:30:25;;;;;;;4.57;3.90;;;1.60;99.90;;;;;;7313525;19;2003972;-87
2023/01/22 10:33:02;;;;;;;4.70;4.20;;;1.70;99.90;;;;;;7419374;19;20357;-87
2023/01/22 10:35:29;;;;;;;7.07;6.00;;;1.70;99.90;;;;;;7315615;19;2004368;-86
2023/01/22 10:37:55;;;;;;;5.53;4.60;;;1.70;99.90;;;;;;7418191;19;20357;-88
2023/01/22 10:40:27;;;;;;;5.15;4.30;;;1.70;99.90;;;;;;7418664;19;20353;-85
2023/01/22 10:43:10;;;;;;;5.37;4.80;;;1.80;99.90;;;;;;7314900;19;2004265;-86
2023/01/22 10:45:35;;;;;;;4.38;3.97;;;1.80;99.90;;;;;;7418081;19;20358;-89
2023/01/22 10:48:14;;;;;;;5.50;4.50;;;1.80;99.90;;;;;;7417267;19;20324;-88
2023/01/22 10:50:40;;;;;;;4.80;4.22;;;1.90;99.90;;;;;;7413338;19;20383;-78
2023/01/22 10:53:23;;;;;;;5.63;4.30;;;1.90;99.90;;;;;;7409541;19;20707;-75
2023/01/22 10:55:54;;;;;;;5.50;4.72;;;1.90;99.90;;;;;;7409524;19;20372;-81
2023/01/22 10:58:20;;;;;;;6.82;5.90;;;1.90;99.90;;;;;;7411190;19;20383;-79
2023/01/22 11:00:54;;;;;;;8.40;6.80;;;1.80;99.90;;;;;;7398713;19;20317;-80
2023/01/22 11:03:29;;;;;;;10.02;6.80;;;1.80;99.90;;;;;;7401569;19;20680;-78
2023/01/22 11:05:59;;;;;;;6.07;5.07;;;1.80;99.90;;;;;;7298719;19;2010131;-75
2023/01/22 11:08:29;;;;;;;5.57;5.03;;;1.80;99.90;;;;;;7397814;19;20373;-79
2023/01/22 11:11:03;;;;;;;7.30;5.60;;;1.90;99.90;;;;;;7396121;19;20502;-81
2023/01/22 11:13:39;;;;;;;6.32;4.88;;;1.90;99.90;;;;;;7395175;19;20392;-81
2023/01/22 11:16:15;;;;;;;6.05;4.80;;;1.90;99.90;;;;;;7402389;19;20313;-79
2023/01/22 11:18:50;;;;;;;5.47;4.57;;;1.90;99.90;;;;;;7398190;19;20419;-77
2023/01/22 11:21:21;;;;;;;6.53;4.80;;;1.90;99.90;;;;;;7396637;19;20323;-78
2023/01/22 11:23:56;;;;;;;5.30;4.70;;;1.80;99.90;;;;;;7393555;19;20320;-86
2023/01/22 11:26:40;;;;;;;5.35;4.57;;;1.80;99.90;;;;;;7396524;19;20326;-76
2023/01/22 11:29:29;;;;;;;6.50;4.55;;;1.80;99.90;;;;;;7292003;19;2004343;-78
2023/01/22 11:32:00;;;;;;;5.68;4.80;;;1.80;99.90;;;;;;7288824;19;2004290;-77
2023/01/22 11:34:58;;;;;;;7.07;5.13;;;1.80;99.90;;;;;;7386976;19;20343;-75
2023/01/22 11:37:51;;;;;;;6.88;4.93;;;1.80;99.90;;;;;;7284787;19;2004320;-77
2023/01/22 11:40:34;;;;;;;5.53;4.63;;;1.70;99.90;;;;;;7382437;19;20316;-77
2023/01/22 11:43:12;;;;;;;6.33;5.23;;;1.70;99.90;;;;;;7285633;19;2004366;-81
2023/01/22 11:45:56;;;;;;;6.78;5.53;;;1.70;99.90;;;;;;7389002;19;20464;-81
2023/01/22 11:48:49;;;;;;;9.13;5.63;;;1.70;99.90;;;;;;7393600;19;20304;-81
2023/01/22 11:51:18;;;;;;;6.95;5.70;;;1.70;99.90;;;;;;7289559;19;2004548;-82
2023/01/22 11:53:58;;;;;;;7.75;5.82;;;1.60;99.90;;;;;;7392272;19;20325;-82
2023/01/22 11:57:01;;;;;;;8.93;5.95;;;1.60;99.90;;;;;;7294922;19;2004401;-77
2023/01/22 12:00:03;;;;;;;8.13;6.27;;;1.60;99.90;;;;;;7290342;19;2004404;-80
2023/01/22 12:02:48;;;;;;;8.95;6.20;;;1.60;99.90;;;;;;7291455;19;2004318;-78
2023/01/22 12:05:25;;;;;;;8.70;6.50;;;1.60;99.90;;;;;;7394857;19;20396;-77
2023/01/22 12:08:11;;;;;;;8.95;6.05;;;1.50;99.90;;;;;;7398003;19;20317;-79
2023/01/22 12:10:56;;;;;;;6.85;5.60;;;1.50;99.90;;;;;;7291430;19;2004497;-76
2023/01/22 12:13:57;;;;;;;8.48;5.90;;;1.50;99.90;;;;;;7396783;19;20317;-75
2023/01/22 12:16:58;;;;;;;7.00;5.87;;;1.60;99.90;;;;;;7191828;19;2010445;-78
2023/01/22 12:19:33;;;;;;;7.35;5.68;;;1.50;99.90;;;;;;7189935;19;2006439;-76
2023/01/22 12:22:28;;;;;;;9.00;6.30;;;1.50;99.90;;;;;;7395352;19;20325;-82
2023/01/22 12:25:13;;;;;;;8.35;5.90;;;1.50;99.90;;;;;;7297169;19;2004578;-77
2023/01/22 12:27:59;;;;;;;6.68;5.88;;;1.60;99.90;;;;;;7404727;19;20403;-80
2023/01/22 12:30:41;;;;;;;7.95;6.22;;;1.60;99.90;;;;;;7297897;19;2004592;-82
2023/01/22 12:33:10;;;;;;;6.47;5.68;;;1.50;99.90;;;;;;7402591;19;20321;-77
2023/01/22 12:35:35;;;;;;;7.93;6.25;;;1.60;99.90;;;;;;7403797;19;20352;-86
2023/01/22 12:38:23;;;;;;;7.43;5.78;;;1.60;99.90;;;;;;7403675;19;20368;-75
2023/01/22 12:41:24;;;;;;;6.57;5.88;;;1.60;99.90;;;;;;7400215;19;20310;-79
2023/01/22 12:43:54;;;;;;;7.57;5.95;;;1.50;99.90;;;;;;7297897;19;2004657;-88
2023/01/22 12:46:41;;;;;;;7.97;6.00;;;1.60;99.90;;;;;;7404788;19;20312;-81
2023/01/22 12:49:08;;;;;;;7.93;6.47;;;1.60;99.90;;;;;;7298847;19;2004594;-77
2023/01/22 12:51:38;;;;;;;7.97;5.93;;;1.50;99.90;;;;;;7401840;19;20356;-85
2023/01/22 12:54:19;;;;;;;8.80;5.87;;;1.50;99.90;;;;;;7399233;19;20313;-76
2023/01/22 12:56:45;;;;;;;7.80;6.30;;;1.50;99.90;;;;;;7404603;19;20352;-75
2023/01/22 12:59:39;;;;;;;8.93;6.25;;;1.50;99.90;;;;;;7395040;19;20368;-82
2023/01/22 13:02:24;;;;;;;7.35;5.85;;;1.50;99.90;;;;;;7299578;19;2004425;-85
2023/01/22 13:04:50;;;;;;;9.25;7.00;;;1.50;99.90;;;;;;7402706;19;20328;-80
2023/01/22 13:07:32;;;;;;;7.40;6.23;;;1.50;99.90;;;;;;7404509;19;20331;-79
2023/01/22 13:10:01;;;;;;;8.85;6.05;;;1.50;99.90;;;;;;7296711;19;2004475;-82
2023/01/22 13:12:42;;;;;;;7.18;6.07;;;1.40;99.90;;;;;;7400927;19;20886;-86
2023/01/22 13:15:30;;;;;;;8.88;6.18;;;1.40;99.90;;;;;;7382957;19;20357;-74
2023/01/22 13:18:03;;;;;;;6.88;6.03;;;1.40;99.90;;;;;;7283536;19;2004449;-79
2023/01/22 13:20:32;;;;;;;8.88;6.35;;;1.40;99.90;;;;;;7383309;19;20345;-75
2023/01/22 13:22:58;;;;;;;10.85;6.65;;;1.60;99.90;;;;;;7386524;19;20347;-81